sensor_id;sensor_type;location;lat;lon;timestamp;P1;durP1;ratioP1;P2;durP2;ratioP2
34924;SDS011;21130;51.728;8.748;2022-09-27T00:00:13;4.80;;;1.98;;
34924;SDS011;21130;51.728;8.748;2022-09-27T00:02:38;1.90;;;1.60;;
34924;SDS011;21130;51.728;8.748;2022-09-27T00:05:04;2.15;;;1.88;;
34924;SDS011;21130;51.728;8.748;2022-09-27T00:07:29;2.97;;;1.95;;
34924;SDS011;21130;51.728;8.748;2022-09-27T00:09:55;2.42;;;1.65;;
34924;SDS011;21130;51.728;8.748;2022-09-27T00:12:20;2.92;;;1.92;;
34924;SDS011;21130;51.728;8.748;2022-09-27T00:14:46;2.08;;;1.80;;
34924;SDS011;21130;51.728;8.748;2022-09-27T00:17:11;2.47;;;2.28;;
34924;SDS011;21130;51.728;8.748;2022-09-27T00:19:36;2.17;;;2.03;;
34924;SDS011;21130;51.728;8.748;2022-09-27T00:22:02;4.53;;;2.42;;
34924;SDS011;21130;51.728;8.748;2022-09-27T00:24:27;3.80;;;2.20;;
34924;SDS011;21130;51.728;8.748;2022-09-27T00:26:53;4.40;;;2.35;;
34924;SDS011;21130;51.728;8.748;2022-09-27T00:29:19;3.63;;;2.50;;
34924;SDS011;21130;51.728;8.748;2022-09-27T00:31:44;4.20;;;2.40;;
34924;SDS011;21130;51.728;8.748;2022-09-27T00:34:15;6.13;;;2.60;;
34924;SDS011;21130;51.728;8.748;2022-09-27T00:36:43;3.75;;;2.67;;
34924;SDS011;21130;51.728;8.748;2022-09-27T00:39:08;5.55;;;2.53;;
34924;SDS011;21130;51.728;8.748;2022-09-27T00:41:36;3.78;;;2.60;;
34924;SDS011;21130;51.728;8.748;2022-09-27T00:49:39;3.53;;;3.05;;
34924;SDS011;21130;51.728;8.748;2022-09-27T00:52:13;5.75;;;3.40;;
34924;SDS011;21130;51.728;8.748;2022-09-27T00:54:43;6.55;;;3.60;;
34924;SDS011;21130;51.728;8.748;2022-09-27T00:57:11;10.82;;;3.20;;
34924;SDS011;21130;51.728;8.748;2022-09-27T00:59:40;9.98;;;4.28;;
34924;SDS011;21130;51.728;8.748;2022-09-27T01:02:12;7.80;;;3.53;;
34924;SDS011;21130;51.728;8.748;2022-09-27T01:04:38;6.28;;;3.58;;
34924;SDS011;21130;51.728;8.748;2022-09-27T01:07:04;6.32;;;3.72;;
34924;SDS011;21130;51.728;8.748;2022-09-27T01:09:30;7.80;;;4.20;;
34924;SDS011;21130;51.728;8.748;2022-09-27T01:12:06;7.68;;;3.92;;
34924;SDS011;21130;51.728;8.748;2022-09-27T01:14:48;9.55;;;4.65;;
34924;SDS011;21130;51.728;8.748;2022-09-27T01:34:25;10.15;;;5.60;;
34924;SDS011;21130;51.728;8.748;2022-09-27T01:37:07;10.32;;;5.73;;
34924;SDS011;21130;51.728;8.748;2022-09-27T01:39:49;11.05;;;6.15;;
34924;SDS011;21130;51.728;8.748;2022-09-27T01:50:39;12.20;;;6.22;;
34924;SDS011;21130;51.728;8.748;2022-09-27T01:53:22;11.45;;;6.55;;
34924;SDS011;21130;51.728;8.748;2022-09-27T01:55:53;11.10;;;6.50;;
34924;SDS011;21130;51.728;8.748;2022-09-27T02:00:53;10.25;;;5.90;;
34924;SDS011;21130;51.728;8.748;2022-09-27T02:03:20;14.10;;;6.43;;
34924;SDS011;21130;51.728;8.748;2022-09-27T02:06:00;10.20;;;6.13;;
34924;SDS011;21130;51.728;8.748;2022-09-27T02:08:33;9.18;;;6.18;;
34924;SDS011;21130;51.728;8.748;2022-09-27T02:11:10;7.57;;;6.30;;
34924;SDS011;21130;51.728;8.748;2022-09-27T02:13:54;7.40;;;6.65;;
34924;SDS011;21130;51.728;8.748;2022-09-27T02:16:33;9.27;;;6.97;;
34924;SDS011;21130;51.728;8.748;2022-09-27T02:22:13;8.60;;;6.40;;
34924;SDS011;21130;51.728;8.748;2022-09-27T02:24:44;8.98;;;6.20;;
34924;SDS011;21130;51.728;8.748;2022-09-27T02:27:31;8.65;;;6.15;;
34924;SDS011;21130;51.728;8.748;2022-09-27T02:30:01;7.38;;;4.60;;
34924;SDS011;21130;51.728;8.748;2022-09-27T02:32:31;6.18;;;4.43;;
34924;SDS011;21130;51.728;8.748;2022-09-27T02:34:58;6.60;;;4.28;;
34924;SDS011;21130;51.728;8.748;2022-09-27T02:37:25;7.60;;;5.20;;
34924;SDS011;21130;51.728;8.748;2022-09-27T02:39:50;7.43;;;5.15;;
34924;SDS011;21130;51.728;8.748;2022-09-27T02:42:16;6.63;;;4.97;;
34924;SDS011;21130;51.728;8.748;2022-09-27T02:44:41;10.73;;;5.63;;
34924;SDS011;21130;51.728;8.748;2022-09-27T02:49:54;9.15;;;5.22;;
34924;SDS011;21130;51.728;8.748;2022-09-27T02:55:18;11.60;;;5.88;;
34924;SDS011;21130;51.728;8.748;2022-09-27T03:01:17;7.30;;;5.78;;
34924;SDS011;21130;51.728;8.748;2022-09-27T03:04:01;8.52;;;5.07;;
34924;SDS011;21130;51.728;8.748;2022-09-27T03:06:34;11.70;;;6.05;;
34924;SDS011;21130;51.728;8.748;2022-09-27T03:09:02;11.55;;;6.28;;
34924;SDS011;21130;51.728;8.748;2022-09-27T03:11:27;9.07;;;5.53;;
34924;SDS011;21130;51.728;8.748;2022-09-27T03:13:53;10.60;;;5.75;;
34924;SDS011;21130;51.728;8.748;2022-09-27T03:16:19;14.07;;;5.60;;
34924;SDS011;21130;51.728;8.748;2022-09-27T03:19:10;8.88;;;5.43;;
34924;SDS011;21130;51.728;8.748;2022-09-27T03:21:35;7.55;;;5.05;;
34924;SDS011;21130;51.728;8.748;2022-09-27T03:24:01;8.93;;;5.25;;
34924;SDS011;21130;51.728;8.748;2022-09-27T03:26:26;8.73;;;4.90;;
34924;SDS011;21130;51.728;8.748;2022-09-27T03:28:52;11.82;;;5.32;;
34924;SDS011;21130;51.728;8.748;2022-09-27T03:31:17;8.02;;;4.90;;
34924;SDS011;21130;51.728;8.748;2022-09-27T03:33:43;6.68;;;4.43;;
34924;SDS011;21130;51.728;8.748;2022-09-27T03:36:08;8.70;;;5.22;;
34924;SDS011;21130;51.728;8.748;2022-09-27T03:38:34;5.80;;;3.75;;
34924;SDS011;21130;51.728;8.748;2022-09-27T03:40:59;7.05;;;4.00;;
34924;SDS011;21130;51.728;8.748;2022-09-27T03:43:24;6.82;;;3.92;;
34924;SDS011;21130;51.728;8.748;2022-09-27T03:45:50;6.43;;;3.97;;
34924;SDS011;21130;51.728;8.748;2022-09-27T03:48:15;12.60;;;4.60;;
34924;SDS011;21130;51.728;8.748;2022-09-27T03:50:41;6.38;;;4.25;;
34924;SDS011;21130;51.728;8.748;2022-09-27T03:53:06;5.80;;;4.78;;
34924;SDS011;21130;51.728;8.748;2022-09-27T03:55:32;7.60;;;4.78;;
34924;SDS011;21130;51.728;8.748;2022-09-27T03:57:57;8.00;;;4.53;;
34924;SDS011;21130;51.728;8.748;2022-09-27T04:00:23;10.80;;;4.72;;
34924;SDS011;21130;51.728;8.748;2022-09-27T04:02:48;8.10;;;5.13;;
34924;SDS011;21130;51.728;8.748;2022-09-27T04:05:14;9.68;;;4.50;;
34924;SDS011;21130;51.728;8.748;2022-09-27T04:07:44;7.40;;;4.50;;
34924;SDS011;21130;51.728;8.748;2022-09-27T04:10:10;8.05;;;4.60;;
34924;SDS011;21130;51.728;8.748;2022-09-27T04:12:38;9.25;;;4.32;;
34924;SDS011;21130;51.728;8.748;2022-09-27T04:15:04;9.45;;;4.60;;
34924;SDS011;21130;51.728;8.748;2022-09-27T04:17:30;9.70;;;4.65;;
34924;SDS011;21130;51.728;8.748;2022-09-27T04:20:15;8.52;;;4.45;;
34924;SDS011;21130;51.728;8.748;2022-09-27T04:22:59;7.28;;;4.03;;
34924;SDS011;21130;51.728;8.748;2022-09-27T04:25:44;7.82;;;4.53;;
34924;SDS011;21130;51.728;8.748;2022-09-27T04:28:28;9.15;;;4.95;;
34924;SDS011;21130;51.728;8.748;2022-09-27T04:30:59;9.60;;;4.90;;
34924;SDS011;21130;51.728;8.748;2022-09-27T04:33:24;9.40;;;5.07;;
34924;SDS011;21130;51.728;8.748;2022-09-27T04:35:50;8.50;;;4.85;;
34924;SDS011;21130;51.728;8.748;2022-09-27T04:38:34;7.15;;;4.40;;
34924;SDS011;21130;51.728;8.748;2022-09-27T04:40:59;9.77;;;5.03;;
34924;SDS011;21130;51.728;8.748;2022-09-27T04:43:26;6.78;;;4.95;;
34924;SDS011;21130;51.728;8.748;2022-09-27T04:45:52;7.70;;;4.40;;
34924;SDS011;21130;51.728;8.748;2022-09-27T04:48:17;8.07;;;4.60;;
34924;SDS011;21130;51.728;8.748;2022-09-27T04:50:42;6.70;;;4.70;;
34924;SDS011;21130;51.728;8.748;2022-09-27T04:53:11;6.45;;;5.25;;
34924;SDS011;21130;51.728;8.748;2022-09-27T04:55:43;6.55;;;4.57;;
34924;SDS011;21130;51.728;8.748;2022-09-27T04:58:10;10.65;;;4.97;;
34924;SDS011;21130;51.728;8.748;2022-09-27T05:00:35;9.63;;;5.05;;
34924;SDS011;21130;51.728;8.748;2022-09-27T05:03:00;9.60;;;4.60;;
34924;SDS011;21130;51.728;8.748;2022-09-27T05:05:25;6.15;;;4.35;;
34924;SDS011;21130;51.728;8.748;2022-09-27T05:07:51;6.95;;;4.93;;
34924;SDS011;21130;51.728;8.748;2022-09-27T05:10:17;7.75;;;4.45;;
34924;SDS011;21130;51.728;8.748;2022-09-27T05:12:42;9.60;;;4.70;;
34924;SDS011;21130;51.728;8.748;2022-09-27T05:15:08;5.90;;;3.83;;
34924;SDS011;21130;51.728;8.748;2022-09-27T05:17:34;6.57;;;4.18;;
34924;SDS011;21130;51.728;8.748;2022-09-27T05:19:59;7.07;;;3.65;;
34924;SDS011;21130;51.728;8.748;2022-09-27T05:22:25;6.13;;;4.13;;
34924;SDS011;21130;51.728;8.748;2022-09-27T05:24:50;7.38;;;3.40;;
34924;SDS011;21130;51.728;8.748;2022-09-27T05:27:15;6.60;;;3.70;;
34924;SDS011;21130;51.728;8.748;2022-09-27T05:29:44;8.00;;;4.10;;
34924;SDS011;21130;51.728;8.748;2022-09-27T05:32:11;6.38;;;3.75;;
34924;SDS011;21130;51.728;8.748;2022-09-27T05:34:36;4.65;;;4.03;;
34924;SDS011;21130;51.728;8.748;2022-09-27T05:37:02;6.53;;;4.15;;
34924;SDS011;21130;51.728;8.748;2022-09-27T05:39:27;7.10;;;4.50;;
34924;SDS011;21130;51.728;8.748;2022-09-27T05:41:53;9.07;;;4.20;;
34924;SDS011;21130;51.728;8.748;2022-09-27T05:44:20;6.60;;;4.05;;
34924;SDS011;21130;51.728;8.748;2022-09-27T05:46:45;6.55;;;4.50;;
34924;SDS011;21130;51.728;8.748;2022-09-27T05:49:11;7.95;;;5.13;;
34924;SDS011;21130;51.728;8.748;2022-09-27T05:51:36;13.95;;;6.18;;
34924;SDS011;21130;51.728;8.748;2022-09-27T05:54:01;10.95;;;6.03;;
34924;SDS011;21130;51.728;8.748;2022-09-27T05:56:27;13.73;;;6.65;;
34924;SDS011;21130;51.728;8.748;2022-09-27T05:58:52;9.85;;;6.53;;
34924;SDS011;21130;51.728;8.748;2022-09-27T06:01:18;12.65;;;6.95;;
34924;SDS011;21130;51.728;8.748;2022-09-27T06:03:43;10.95;;;7.10;;
34924;SDS011;21130;51.728;8.748;2022-09-27T06:06:10;11.00;;;6.97;;
34924;SDS011;21130;51.728;8.748;2022-09-27T06:08:36;13.25;;;6.43;;
34924;SDS011;21130;51.728;8.748;2022-09-27T06:11:09;11.00;;;7.00;;
34924;SDS011;21130;51.728;8.748;2022-09-27T06:13:38;9.95;;;6.90;;
34924;SDS011;21130;51.728;8.748;2022-09-27T06:16:06;9.65;;;6.32;;
34924;SDS011;21130;51.728;8.748;2022-09-27T06:18:33;11.07;;;6.05;;
34924;SDS011;21130;51.728;8.748;2022-09-27T06:20:58;9.82;;;6.30;;
34924;SDS011;21130;51.728;8.748;2022-09-27T06:23:25;12.40;;;5.95;;
34924;SDS011;21130;51.728;8.748;2022-09-27T06:25:50;6.68;;;4.88;;
34924;SDS011;21130;51.728;8.748;2022-09-27T06:28:17;6.93;;;4.80;;
34924;SDS011;21130;51.728;8.748;2022-09-27T06:30:44;9.32;;;5.18;;
34924;SDS011;21130;51.728;8.748;2022-09-27T06:33:11;8.68;;;4.35;;
34924;SDS011;21130;51.728;8.748;2022-09-27T06:35:38;9.27;;;5.10;;
34924;SDS011;21130;51.728;8.748;2022-09-27T06:38:05;6.90;;;4.50;;
34924;SDS011;21130;51.728;8.748;2022-09-27T06:40:33;6.25;;;4.25;;
34924;SDS011;21130;51.728;8.748;2022-09-27T06:43:02;9.45;;;4.63;;
34924;SDS011;21130;51.728;8.748;2022-09-27T06:45:28;11.18;;;4.82;;
34924;SDS011;21130;51.728;8.748;2022-09-27T06:47:56;8.32;;;4.40;;
34924;SDS011;21130;51.728;8.748;2022-09-27T06:50:21;8.50;;;4.50;;
34924;SDS011;21130;51.728;8.748;2022-09-27T06:52:47;9.05;;;4.50;;
34924;SDS011;21130;51.728;8.748;2022-09-27T06:55:14;6.15;;;4.30;;
34924;SDS011;21130;51.728;8.748;2022-09-27T06:57:40;6.43;;;4.30;;
34924;SDS011;21130;51.728;8.748;2022-09-27T07:00:24;5.05;;;4.22;;
34924;SDS011;21130;51.728;8.748;2022-09-27T07:02:52;6.13;;;4.28;;
34924;SDS011;21130;51.728;8.748;2022-09-27T07:05:21;6.53;;;4.40;;
34924;SDS011;21130;51.728;8.748;2022-09-27T07:07:46;8.02;;;4.75;;
34924;SDS011;21130;51.728;8.748;2022-09-27T07:10:12;7.35;;;3.85;;
34924;SDS011;21130;51.728;8.748;2022-09-27T07:12:38;7.75;;;4.03;;
34924;SDS011;21130;51.728;8.748;2022-09-27T07:15:04;6.35;;;4.18;;
34924;SDS011;21130;51.728;8.748;2022-09-27T07:17:31;7.68;;;4.32;;
34924;SDS011;21130;51.728;8.748;2022-09-27T07:19:57;5.20;;;3.72;;
34924;SDS011;21130;51.728;8.748;2022-09-27T07:22:22;8.38;;;3.90;;
34924;SDS011;21130;51.728;8.748;2022-09-27T07:24:48;10.10;;;4.50;;
34924;SDS011;21130;51.728;8.748;2022-09-27T07:27:13;7.07;;;4.40;;
34924;SDS011;21130;51.728;8.748;2022-09-27T07:29:39;6.30;;;4.30;;
34924;SDS011;21130;51.728;8.748;2022-09-27T07:32:05;8.30;;;4.80;;
34924;SDS011;21130;51.728;8.748;2022-09-27T07:34:32;9.02;;;4.95;;
34924;SDS011;21130;51.728;8.748;2022-09-27T07:36:58;10.02;;;5.40;;
34924;SDS011;21130;51.728;8.748;2022-09-27T07:39:24;9.10;;;5.43;;
34924;SDS011;21130;51.728;8.748;2022-09-27T07:41:50;8.07;;;5.50;;
34924;SDS011;21130;51.728;8.748;2022-09-27T07:44:16;10.38;;;6.38;;
34924;SDS011;21130;51.728;8.748;2022-09-27T07:46:42;7.97;;;6.30;;
34924;SDS011;21130;51.728;8.748;2022-09-27T07:49:07;9.73;;;7.15;;
34924;SDS011;21130;51.728;8.748;2022-09-27T07:51:32;8.35;;;7.45;;
34924;SDS011;21130;51.728;8.748;2022-09-27T07:53:58;10.05;;;7.80;;
34924;SDS011;21130;51.728;8.748;2022-09-27T07:56:26;10.40;;;7.95;;
34924;SDS011;21130;51.728;8.748;2022-09-27T07:58:52;9.38;;;8.43;;
34924;SDS011;21130;51.728;8.748;2022-09-27T08:01:17;8.98;;;8.07;;
34924;SDS011;21130;51.728;8.748;2022-09-27T08:03:43;10.73;;;9.00;;
34924;SDS011;21130;51.728;8.748;2022-09-27T08:06:08;11.45;;;10.00;;
34924;SDS011;21130;51.728;8.748;2022-09-27T08:08:34;11.73;;;10.52;;
34924;SDS011;21130;51.728;8.748;2022-09-27T08:11:00;14.98;;;11.45;;
34924;SDS011;21130;51.728;8.748;2022-09-27T08:13:26;15.57;;;11.63;;
34924;SDS011;21130;51.728;8.748;2022-09-27T08:15:51;13.38;;;11.73;;
34924;SDS011;21130;51.728;8.748;2022-09-27T08:18:17;17.70;;;14.98;;
34924;SDS011;21130;51.728;8.748;2022-09-27T08:20:42;19.05;;;15.80;;
34924;SDS011;21130;51.728;8.748;2022-09-27T08:23:08;16.60;;;14.90;;
34924;SDS011;21130;51.728;8.748;2022-09-27T08:25:33;17.85;;;16.05;;
34924;SDS011;21130;51.728;8.748;2022-09-27T08:28:00;18.45;;;16.65;;
34924;SDS011;21130;51.728;8.748;2022-09-27T08:30:28;16.50;;;14.20;;
34924;SDS011;21130;51.728;8.748;2022-09-27T08:32:59;16.40;;;14.82;;
34924;SDS011;21130;51.728;8.748;2022-09-27T08:35:27;15.70;;;13.70;;
34924;SDS011;21130;51.728;8.748;2022-09-27T08:37:54;14.88;;;13.38;;
34924;SDS011;21130;51.728;8.748;2022-09-27T08:40:21;14.55;;;12.93;;
34924;SDS011;21130;51.728;8.748;2022-09-27T08:42:57;14.80;;;13.30;;
34924;SDS011;21130;51.728;8.748;2022-09-27T08:45:54;14.43;;;13.02;;
34924;SDS011;21130;51.728;8.748;2022-09-27T08:48:16;15.18;;;12.38;;
34924;SDS011;21130;51.728;8.748;2022-09-27T08:50:43;16.88;;;13.30;;
34924;SDS011;21130;51.728;8.748;2022-09-27T08:58:09;11.50;;;9.93;;
34924;SDS011;21130;51.728;8.748;2022-09-27T09:00:39;10.25;;;8.05;;
34924;SDS011;21130;51.728;8.748;2022-09-27T09:03:07;11.43;;;7.40;;
34924;SDS011;21130;51.728;8.748;2022-09-27T09:05:42;8.95;;;6.95;;
34924;SDS011;21130;51.728;8.748;2022-09-27T09:11:24;10.43;;;8.52;;
34924;SDS011;21130;51.728;8.748;2022-09-27T09:15:02;12.00;;;8.55;;
34924;SDS011;21130;51.728;8.748;2022-09-27T09:17:34;11.35;;;8.23;;
34924;SDS011;21130;51.728;8.748;2022-09-27T09:22:59;10.15;;;7.18;;
34924;SDS011;21130;51.728;8.748;2022-09-27T09:28:51;6.47;;;5.28;;
34924;SDS011;21130;51.728;8.748;2022-09-27T09:33:53;7.20;;;6.50;;
34924;SDS011;21130;51.728;8.748;2022-09-27T09:36:28;12.10;;;7.47;;
34924;SDS011;21130;51.728;8.748;2022-09-27T09:39:02;9.13;;;7.45;;
34924;SDS011;21130;51.728;8.748;2022-09-27T09:41:33;17.63;;;15.23;;
34924;SDS011;21130;51.728;8.748;2022-09-27T09:44:17;9.68;;;8.50;;
34924;SDS011;21130;51.728;8.748;2022-09-27T09:46:49;9.80;;;6.60;;
34924;SDS011;21130;51.728;8.748;2022-09-27T09:49:21;8.15;;;5.57;;
34924;SDS011;21130;51.728;8.748;2022-09-27T09:51:59;5.97;;;4.82;;
34924;SDS011;21130;51.728;8.748;2022-09-27T09:54:34;5.18;;;4.68;;
34924;SDS011;21130;51.728;8.748;2022-09-27T09:57:11;5.10;;;4.32;;
34924;SDS011;21130;51.728;8.748;2022-09-27T09:59:44;7.25;;;3.90;;
34924;SDS011;21130;51.728;8.748;2022-09-27T10:05:00;5.50;;;4.10;;
34924;SDS011;21130;51.728;8.748;2022-09-27T10:07:27;4.43;;;4.05;;
34924;SDS011;21130;51.728;8.748;2022-09-27T10:09:55;5.30;;;4.50;;
34924;SDS011;21130;51.728;8.748;2022-09-27T10:12:24;4.85;;;4.35;;
34924;SDS011;21130;51.728;8.748;2022-09-27T10:14:50;5.80;;;4.82;;
34924;SDS011;21130;51.728;8.748;2022-09-27T10:17:19;5.75;;;4.38;;
34924;SDS011;21130;51.728;8.748;2022-09-27T10:19:46;10.32;;;4.05;;
34924;SDS011;21130;51.728;8.748;2022-09-27T10:25:02;4.22;;;3.83;;
34924;SDS011;21130;51.728;8.748;2022-09-27T10:30:25;5.57;;;5.07;;
34924;SDS011;21130;51.728;8.748;2022-09-27T10:32:59;7.40;;;5.90;;
34924;SDS011;21130;51.728;8.748;2022-09-27T10:40:41;6.90;;;5.72;;
34924;SDS011;21130;51.728;8.748;2022-09-27T10:49:06;10.30;;;8.65;;
34924;SDS011;21130;51.728;8.748;2022-09-27T10:51:44;10.65;;;9.68;;
34924;SDS011;21130;51.728;8.748;2022-09-27T10:56:57;12.07;;;9.23;;
34924;SDS011;21130;51.728;8.748;2022-09-27T10:59:29;9.68;;;8.88;;
34924;SDS011;21130;51.728;8.748;2022-09-27T11:01:58;10.23;;;9.32;;
34924;SDS011;21130;51.728;8.748;2022-09-27T11:04:32;10.40;;;9.50;;
34924;SDS011;21130;51.728;8.748;2022-09-27T11:07:06;8.90;;;8.05;;
34924;SDS011;21130;51.728;8.748;2022-09-27T11:09:31;8.98;;;8.07;;
34924;SDS011;21130;51.728;8.748;2022-09-27T11:12:08;9.02;;;8.30;;
34924;SDS011;21130;51.728;8.748;2022-09-27T11:14:34;10.73;;;9.75;;
34924;SDS011;21130;51.728;8.748;2022-09-27T11:20:13;9.40;;;8.60;;
34924;SDS011;21130;51.728;8.748;2022-09-27T11:31:12;5.45;;;5.00;;
34924;SDS011;21130;51.728;8.748;2022-09-27T11:42:34;6.70;;;5.68;;
34924;SDS011;21130;51.728;8.748;2022-09-27T11:45:45;6.15;;;5.57;;
34924;SDS011;21130;51.728;8.748;2022-09-27T11:50:55;6.63;;;6.03;;
34924;SDS011;21130;51.728;8.748;2022-09-27T11:53:45;7.10;;;6.50;;
34924;SDS011;21130;51.728;8.748;2022-09-27T12:02:20;6.47;;;5.90;;
34924;SDS011;21130;51.728;8.748;2022-09-27T12:10:38;3.60;;;3.30;;
34924;SDS011;21130;51.728;8.748;2022-09-27T12:13:07;3.83;;;3.15;;
34924;SDS011;21130;51.728;8.748;2022-09-27T12:15:38;2.90;;;2.33;;
34924;SDS011;21130;51.728;8.748;2022-09-27T12:20:48;3.45;;;1.67;;
34924;SDS011;21130;51.728;8.748;2022-09-27T12:23:39;1.52;;;1.40;;
34924;SDS011;21130;51.728;8.748;2022-09-27T12:26:08;2.90;;;1.67;;
34924;SDS011;21130;51.728;8.748;2022-09-27T12:34:13;2.17;;;1.98;;
34924;SDS011;21130;51.728;8.748;2022-09-27T12:36:44;2.47;;;1.75;;
34924;SDS011;21130;51.728;8.748;2022-09-27T12:39:22;5.22;;;2.15;;
34924;SDS011;21130;51.728;8.748;2022-09-27T12:41:57;1.58;;;1.48;;
34924;SDS011;21130;51.728;8.748;2022-09-27T12:44:31;2.47;;;1.73;;
34924;SDS011;21130;51.728;8.748;2022-09-27T12:47:22;1.45;;;1.30;;
34924;SDS011;21130;51.728;8.748;2022-09-27T12:53:02;1.80;;;1.52;;
34924;SDS011;21130;51.728;8.748;2022-09-27T12:58:53;2.03;;;1.70;;
34924;SDS011;21130;51.728;8.748;2022-09-27T13:07:31;2.53;;;1.80;;
34924;SDS011;21130;51.728;8.748;2022-09-27T13:12:48;2.38;;;1.60;;
34924;SDS011;21130;51.728;8.748;2022-09-27T13:15:31;2.72;;;1.85;;
34924;SDS011;21130;51.728;8.748;2022-09-27T13:17:58;1.60;;;1.50;;
34924;SDS011;21130;51.728;8.748;2022-09-27T13:30:52;2.08;;;1.50;;
34924;SDS011;21130;51.728;8.748;2022-09-27T13:38:52;2.42;;;1.35;;
34924;SDS011;21130;51.728;8.748;2022-09-27T13:49:52;4.22;;;1.50;;
34924;SDS011;21130;51.728;8.748;2022-09-27T13:52:36;1.70;;;1.58;;
34924;SDS011;21130;51.728;8.748;2022-09-27T13:55:19;3.17;;;1.70;;
34924;SDS011;21130;51.728;8.748;2022-09-27T14:03:48;1.95;;;1.50;;
34924;SDS011;21130;51.728;8.748;2022-09-27T14:06:20;2.20;;;2.00;;
34924;SDS011;21130;51.728;8.748;2022-09-27T14:11:20;2.58;;;2.38;;
34924;SDS011;21130;51.728;8.748;2022-09-27T14:13:50;3.97;;;2.67;;
34924;SDS011;21130;51.728;8.748;2022-09-27T14:16:17;3.05;;;2.78;;
34924;SDS011;21130;51.728;8.748;2022-09-27T14:18:47;3.28;;;2.97;;
34924;SDS011;21130;51.728;8.748;2022-09-27T14:21:23;3.28;;;3.03;;
34924;SDS011;21130;51.728;8.748;2022-09-27T14:24:13;3.78;;;3.47;;
34924;SDS011;21130;51.728;8.748;2022-09-27T14:26:45;4.10;;;3.70;;
34924;SDS011;21130;51.728;8.748;2022-09-27T14:29:17;3.88;;;3.58;;
34924;SDS011;21130;51.728;8.748;2022-09-27T14:31:45;3.63;;;3.33;;
34924;SDS011;21130;51.728;8.748;2022-09-27T14:34:13;3.42;;;3.10;;
34924;SDS011;21130;51.728;8.748;2022-09-27T14:36:39;4.78;;;3.17;;
34924;SDS011;21130;51.728;8.748;2022-09-27T14:39:32;3.88;;;3.58;;
34924;SDS011;21130;51.728;8.748;2022-09-27T14:42:02;4.15;;;3.70;;
34924;SDS011;21130;51.728;8.748;2022-09-27T14:44:30;6.07;;;3.70;;
34924;SDS011;21130;51.728;8.748;2022-09-27T14:47:13;4.32;;;3.97;;
34924;SDS011;21130;51.728;8.748;2022-09-27T14:49:49;4.05;;;3.72;;
34924;SDS011;21130;51.728;8.748;2022-09-27T14:52:21;4.75;;;4.35;;
34924;SDS011;21130;51.728;8.748;2022-09-27T15:05:24;5.03;;;4.53;;
34924;SDS011;21130;51.728;8.748;2022-09-27T15:07:52;5.50;;;4.80;;
34924;SDS011;21130;51.728;8.748;2022-09-27T15:10:22;5.22;;;4.70;;
34924;SDS011;21130;51.728;8.748;2022-09-27T15:12:52;5.30;;;4.80;;
34924;SDS011;21130;51.728;8.748;2022-09-27T15:15:22;6.03;;;4.68;;
34924;SDS011;21130;51.728;8.748;2022-09-27T15:17:49;5.28;;;4.78;;
34924;SDS011;21130;51.728;8.748;2022-09-27T15:20:19;5.30;;;4.78;;
34924;SDS011;21130;51.728;8.748;2022-09-27T15:22:51;4.72;;;4.32;;
34924;SDS011;21130;51.728;8.748;2022-09-27T15:25:18;4.45;;;4.05;;
34924;SDS011;21130;51.728;8.748;2022-09-27T15:36:53;3.67;;;3.42;;
34924;SDS011;21130;51.728;8.748;2022-09-27T15:39:40;4.10;;;3.72;;
34924;SDS011;21130;51.728;8.748;2022-09-27T15:42:06;4.18;;;3.83;;
34924;SDS011;21130;51.728;8.748;2022-09-27T15:52:55;5.00;;;4.35;;
34924;SDS011;21130;51.728;8.748;2022-09-27T15:55:42;4.20;;;3.83;;
34924;SDS011;21130;51.728;8.748;2022-09-27T15:58:18;5.93;;;4.20;;
34924;SDS011;21130;51.728;8.748;2022-09-27T16:00:52;4.32;;;3.95;;
34924;SDS011;21130;51.728;8.748;2022-09-27T16:03:23;3.97;;;3.67;;
34924;SDS011;21130;51.728;8.748;2022-09-27T16:05:51;5.18;;;4.68;;
34924;SDS011;21130;51.728;8.748;2022-09-27T16:08:19;4.43;;;4.10;;
34924;SDS011;21130;51.728;8.748;2022-09-27T16:10:45;5.10;;;4.70;;
34924;SDS011;21130;51.728;8.748;2022-09-27T16:13:14;5.30;;;4.80;;
34924;SDS011;21130;51.728;8.748;2022-09-27T16:15:39;5.65;;;5.10;;
34924;SDS011;21130;51.728;8.748;2022-09-27T16:18:04;4.78;;;4.38;;
34924;SDS011;21130;51.728;8.748;2022-09-27T16:20:30;5.57;;;4.85;;
34924;SDS011;21130;51.728;8.748;2022-09-27T16:22:55;4.80;;;4.40;;
34924;SDS011;21130;51.728;8.748;2022-09-27T16:25:22;4.82;;;4.43;;
34924;SDS011;21130;51.728;8.748;2022-09-27T16:27:47;4.75;;;4.35;;
34924;SDS011;21130;51.728;8.748;2022-09-27T16:30:14;4.63;;;4.30;;
34924;SDS011;21130;51.728;8.748;2022-09-27T16:32:41;4.55;;;4.15;;
34924;SDS011;21130;51.728;8.748;2022-09-27T16:35:08;4.10;;;3.80;;
34924;SDS011;21130;51.728;8.748;2022-09-27T16:37:35;3.83;;;3.53;;
34924;SDS011;21130;51.728;8.748;2022-09-27T16:40:02;4.80;;;4.30;;
34924;SDS011;21130;51.728;8.748;2022-09-27T16:42:28;5.03;;;4.55;;
34924;SDS011;21130;51.728;8.748;2022-09-27T16:44:54;4.70;;;4.30;;
34924;SDS011;21130;51.728;8.748;2022-09-27T16:47:19;5.53;;;4.10;;
34924;SDS011;21130;51.728;8.748;2022-09-27T16:49:44;5.00;;;4.22;;
34924;SDS011;21130;51.728;8.748;2022-09-27T16:52:29;4.20;;;3.80;;
34924;SDS011;21130;51.728;8.748;2022-09-27T16:54:58;4.05;;;3.70;;
34924;SDS011;21130;51.728;8.748;2022-09-27T16:57:24;4.28;;;3.88;;
34924;SDS011;21130;51.728;8.748;2022-09-27T16:59:52;4.57;;;4.15;;
34924;SDS011;21130;51.728;8.748;2022-09-27T17:02:20;4.68;;;4.00;;
34924;SDS011;21130;51.728;8.748;2022-09-27T17:04:45;4.72;;;4.32;;
34924;SDS011;21130;51.728;8.748;2022-09-27T17:07:11;5.10;;;4.53;;
34924;SDS011;21130;51.728;8.748;2022-09-27T17:09:36;4.63;;;4.22;;
34924;SDS011;21130;51.728;8.748;2022-09-27T17:12:01;5.63;;;4.60;;
34924;SDS011;21130;51.728;8.748;2022-09-27T17:14:27;4.75;;;4.35;;
34924;SDS011;21130;51.728;8.748;2022-09-27T17:16:52;5.10;;;4.63;;
34924;SDS011;21130;51.728;8.748;2022-09-27T17:19:18;5.00;;;4.47;;
34924;SDS011;21130;51.728;8.748;2022-09-27T17:21:43;4.30;;;4.00;;
34924;SDS011;21130;51.728;8.748;2022-09-27T17:24:09;4.70;;;4.30;;
34924;SDS011;21130;51.728;8.748;2022-09-27T17:26:35;4.65;;;4.10;;
34924;SDS011;21130;51.728;8.748;2022-09-27T17:29:01;6.25;;;4.45;;
34924;SDS011;21130;51.728;8.748;2022-09-27T17:31:27;5.68;;;4.53;;
34924;SDS011;21130;51.728;8.748;2022-09-27T17:33:55;5.63;;;4.70;;
34924;SDS011;21130;51.728;8.748;2022-09-27T17:36:23;4.88;;;4.47;;
34924;SDS011;21130;51.728;8.748;2022-09-27T17:38:50;5.15;;;4.72;;
34924;SDS011;21130;51.728;8.748;2022-09-27T17:41:20;6.03;;;4.93;;
34924;SDS011;21130;51.728;8.748;2022-09-27T17:43:50;5.22;;;4.70;;
34924;SDS011;21130;51.728;8.748;2022-09-27T17:46:17;5.82;;;5.20;;
34924;SDS011;21130;51.728;8.748;2022-09-27T17:48:44;5.25;;;4.75;;
34924;SDS011;21130;51.728;8.748;2022-09-27T17:51:29;5.30;;;4.80;;
34924;SDS011;21130;51.728;8.748;2022-09-27T17:53:55;5.00;;;4.60;;
34924;SDS011;21130;51.728;8.748;2022-09-27T17:56:21;5.10;;;4.70;;
34924;SDS011;21130;51.728;8.748;2022-09-27T17:58:48;5.05;;;4.65;;
34924;SDS011;21130;51.728;8.748;2022-09-27T18:01:15;7.03;;;5.30;;
34924;SDS011;21130;51.728;8.748;2022-09-27T18:03:42;5.88;;;5.38;;
34924;SDS011;21130;51.728;8.748;2022-09-27T18:06:08;6.10;;;5.50;;
34924;SDS011;21130;51.728;8.748;2022-09-27T18:08:35;5.80;;;5.13;;
34924;SDS011;21130;51.728;8.748;2022-09-27T18:11:19;6.10;;;5.50;;
34924;SDS011;21130;51.728;8.748;2022-09-27T18:13:53;5.75;;;5.35;;
34924;SDS011;21130;51.728;8.748;2022-09-27T18:16:27;6.55;;;5.40;;
34924;SDS011;21130;51.728;8.748;2022-09-27T18:18:57;6.32;;;5.47;;
34924;SDS011;21130;51.728;8.748;2022-09-27T18:21:23;6.57;;;5.55;;